sensor_id;sensor_type;location;lat;lon;timestamp;pressure;altitude;pressure_sealevel;temperature;humidity
77366;BME280;66430;50.182;11.704;2024-02-26T00:00:08;93151.40;;;5.76;36.03
77366;BME280;66430;50.182;11.704;2024-02-26T00:02:33;93145.98;;;6.02;35.71
77366;BME280;66430;50.182;11.704;2024-02-26T00:04:59;93139.78;;;5.90;35.89
77366;BME280;66430;50.182;11.704;2024-02-26T00:07:25;93142.14;;;5.99;36.01
77366;BME280;66430;50.182;11.704;2024-02-26T00:09:50;93140.11;;;6.00;35.98
77366;BME280;66430;50.182;11.704;2024-02-26T00:12:15;93135.43;;;5.98;35.57
77366;BME280;66430;50.182;11.704;2024-02-26T00:14:41;93135.46;;;5.88;35.83
77366;BME280;66430;50.182;11.704;2024-02-26T00:17:06;93134.59;;;5.87;35.88
77366;BME280;66430;50.182;11.704;2024-02-26T00:19:32;93133.75;;;6.01;35.64
77366;BME280;66430;50.182;11.704;2024-02-26T00:21:57;93136.65;;;5.95;35.67
77366;BME280;66430;50.182;11.704;2024-02-26T00:24:22;93132.76;;;5.94;35.76
77366;BME280;66430;50.182;11.704;2024-02-26T00:26:47;93125.51;;;5.90;35.95
77366;BME280;66430;50.182;11.704;2024-02-26T00:29:13;93123.71;;;6.15;36.12
77366;BME280;66430;50.182;11.704;2024-02-26T00:31:38;93124.55;;;6.12;36.37
77366;BME280;66430;50.182;11.704;2024-02-26T00:34:03;93120.84;;;5.88;36.33
77366;BME280;66430;50.182;11.704;2024-02-26T00:36:28;93118.23;;;5.91;36.15
77366;BME280;66430;50.182;11.704;2024-02-26T00:38:53;93118.69;;;5.95;36.16
77366;BME280;66430;50.182;11.704;2024-02-26T00:41:23;93118.78;;;5.98;35.99
77366;BME280;66430;50.182;11.704;2024-02-26T00:43:44;93113.72;;;5.98;36.19
77366;BME280;66430;50.182;11.704;2024-02-26T00:46:09;93111.54;;;5.99;36.27
77366;BME280;66430;50.182;11.704;2024-02-26T00:48:36;93107.82;;;5.99;36.44
77366;BME280;66430;50.182;11.704;2024-02-26T00:50:59;93101.25;;;6.03;36.25
77366;BME280;66430;50.182;11.704;2024-02-26T00:53:24;93101.75;;;6.04;36.15
77366;BME280;66430;50.182;11.704;2024-02-26T00:55:51;93099.97;;;5.99;36.18
77366;BME280;66430;50.182;11.704;2024-02-26T00:58:15;93097.92;;;5.79;36.65
77366;BME280;66430;50.182;11.704;2024-02-26T01:00:40;93092.76;;;5.78;36.67
77366;BME280;66430;50.182;11.704;2024-02-26T01:03:07;93092.33;;;5.43;37.46
77366;BME280;66430;50.182;11.704;2024-02-26T01:05:37;93089.89;;;5.57;37.23
77366;BME280;66430;50.182;11.704;2024-02-26T01:07:57;93088.02;;;5.69;36.76
77366;BME280;66430;50.182;11.704;2024-02-26T01:10:22;93090.71;;;5.60;37.10
77366;BME280;66430;50.182;11.704;2024-02-26T01:12:47;93091.19;;;5.71;37.03
77366;BME280;66430;50.182;11.704;2024-02-26T01:15:13;93088.41;;;5.81;37.32
77366;BME280;66430;50.182;11.704;2024-02-26T01:17:38;93086.37;;;5.68;37.13
77366;BME280;66430;50.182;11.704;2024-02-26T01:20:05;93084.96;;;5.82;37.33
77366;BME280;66430;50.182;11.704;2024-02-26T01:22:30;93081.53;;;5.89;37.12
77366;BME280;66430;50.182;11.704;2024-02-26T01:24:55;93078.79;;;5.72;37.23
77366;BME280;66430;50.182;11.704;2024-02-26T01:27:20;93080.27;;;5.61;37.43
77366;BME280;66430;50.182;11.704;2024-02-26T01:29:47;93075.67;;;5.65;37.37
77366;BME280;66430;50.182;11.704;2024-02-26T01:32:12;93073.25;;;5.70;37.37
77366;BME280;66430;50.182;11.704;2024-02-26T01:34:37;93071.95;;;5.64;37.58
77366;BME280;66430;50.182;11.704;2024-02-26T01:37:01;93069.29;;;5.60;37.68
77366;BME280;66430;50.182;11.704;2024-02-26T01:39:27;93069.70;;;5.30;38.26
77366;BME280;66430;50.182;11.704;2024-02-26T01:41:52;93070.77;;;5.06;38.50
77366;BME280;66430;50.182;11.704;2024-02-26T01:44:17;93071.70;;;5.02;38.70
77366;BME280;66430;50.182;11.704;2024-02-26T01:46:43;93070.74;;;5.39;38.22
77366;BME280;66430;50.182;11.704;2024-02-26T01:49:09;93068.69;;;5.41;38.18
77366;BME280;66430;50.182;11.704;2024-02-26T01:51:34;93069.60;;;5.15;38.72
77366;BME280;66430;50.182;11.704;2024-02-26T01:54:00;93071.25;;;5.47;38.13
77366;BME280;66430;50.182;11.704;2024-02-26T01:56:24;93070.46;;;5.49;38.21
77366;BME280;66430;50.182;11.704;2024-02-26T01:58:51;93072.10;;;5.88;37.91
77366;BME280;66430;50.182;11.704;2024-02-26T02:01:16;93072.79;;;5.93;37.84
77366;BME280;66430;50.182;11.704;2024-02-26T02:03:41;93071.30;;;5.73;37.77
77366;BME280;66430;50.182;11.704;2024-02-26T02:06:06;93071.34;;;5.73;37.90
77366;BME280;66430;50.182;11.704;2024-02-26T02:08:32;93074.51;;;5.75;37.79
77366;BME280;66430;50.182;11.704;2024-02-26T02:11:02;93080.75;;;5.79;37.78
77366;BME280;66430;50.182;11.704;2024-02-26T02:13:22;93081.82;;;5.78;37.54
77366;BME280;66430;50.182;11.704;2024-02-26T02:15:49;93084.78;;;5.53;37.86
77366;BME280;66430;50.182;11.704;2024-02-26T02:18:13;93084.15;;;5.37;37.74
77366;BME280;66430;50.182;11.704;2024-02-26T02:20:39;93087.24;;;5.36;37.91
77366;BME280;66430;50.182;11.704;2024-02-26T02:23:04;93084.58;;;5.46;37.77
77366;BME280;66430;50.182;11.704;2024-02-26T02:25:30;93081.45;;;5.50;38.21
77366;BME280;66430;50.182;11.704;2024-02-26T02:27:56;93080.19;;;5.04;38.62
77366;BME280;66430;50.182;11.704;2024-02-26T02:30:21;93078.50;;;5.00;39.14
77366;BME280;66430;50.182;11.704;2024-02-26T02:32:46;93078.47;;;4.86;38.93
77366;BME280;66430;50.182;11.704;2024-02-26T02:35:13;93080.39;;;5.10;38.95
77366;BME280;66430;50.182;11.704;2024-02-26T02:37:36;93083.43;;;5.05;38.97
77366;BME280;66430;50.182;11.704;2024-02-26T02:40:01;93086.17;;;5.28;38.59
77366;BME280;66430;50.182;11.704;2024-02-26T02:42:32;93083.67;;;5.10;38.32
77366;BME280;66430;50.182;11.704;2024-02-26T02:44:52;93083.21;;;5.20;38.15
77366;BME280;66430;50.182;11.704;2024-02-26T02:47:18;93085.47;;;5.14;38.04
77366;BME280;66430;50.182;11.704;2024-02-26T02:49:43;93083.78;;;5.36;37.95
77366;BME280;66430;50.182;11.704;2024-02-26T02:52:09;93080.91;;;5.21;37.96
77366;BME280;66430;50.182;11.704;2024-02-26T02:54:34;93079.63;;;5.55;37.84
77366;BME280;66430;50.182;11.704;2024-02-26T02:57:00;93079.72;;;5.33;37.64
77366;BME280;66430;50.182;11.704;2024-02-26T02:59:24;93080.11;;;5.34;37.74
77366;BME280;66430;50.182;11.704;2024-02-26T03:01:50;93080.53;;;5.47;37.86
77366;BME280;66430;50.182;11.704;2024-02-26T03:04:16;93082.22;;;5.40;37.93
77366;BME280;66430;50.182;11.704;2024-02-26T03:06:41;93072.93;;;4.67;38.98
77366;BME280;66430;50.182;11.704;2024-02-26T03:09:07;93073.78;;;4.63;39.59
77366;BME280;66430;50.182;11.704;2024-02-26T03:11:33;93073.65;;;4.53;39.25
77366;BME280;66430;50.182;11.704;2024-02-26T03:13:59;93072.89;;;4.96;39.01
77366;BME280;66430;50.182;11.704;2024-02-26T03:16:24;93077.09;;;4.71;38.70
77366;BME280;66430;50.182;11.704;2024-02-26T03:18:50;93075.14;;;4.90;38.58
77366;BME280;66430;50.182;11.704;2024-02-26T03:21:15;93076.34;;;4.64;38.71
77366;BME280;66430;50.182;11.704;2024-02-26T03:23:40;93073.53;;;4.65;39.04
77366;BME280;66430;50.182;11.704;2024-02-26T03:26:06;93075.83;;;4.52;39.58
77366;BME280;66430;50.182;11.704;2024-02-26T03:28:31;93080.25;;;4.14;40.08
77366;BME280;66430;50.182;11.704;2024-02-26T03:30:56;93085.92;;;4.32;40.04
77366;BME280;66430;50.182;11.704;2024-02-26T03:33:23;93085.41;;;4.85;39.77
77366;BME280;66430;50.182;11.704;2024-02-26T03:35:47;93085.18;;;4.62;40.11
77366;BME280;66430;50.182;11.704;2024-02-26T03:38:13;93082.65;;;4.32;40.96
77366;BME280;66430;50.182;11.704;2024-02-26T03:40:39;93080.25;;;4.31;40.92
77366;BME280;66430;50.182;11.704;2024-02-26T03:43:04;93079.52;;;3.89;41.28
77366;BME280;66430;50.182;11.704;2024-02-26T03:45:31;93083.89;;;3.90;41.31
77366;BME280;66430;50.182;11.704;2024-02-26T03:47:55;93086.74;;;4.35;41.03
77366;BME280;66430;50.182;11.704;2024-02-26T03:50:21;93089.07;;;4.72;40.57
77366;BME280;66430;50.182;11.704;2024-02-26T03:52:47;93085.74;;;4.70;40.20
77366;BME280;66430;50.182;11.704;2024-02-26T03:55:11;93085.57;;;4.75;40.14
77366;BME280;66430;50.182;11.704;2024-02-26T03:57:36;93083.04;;;4.54;40.32
77366;BME280;66430;50.182;11.704;2024-02-26T04:00:02;93081.80;;;4.42;40.59
77366;BME280;66430;50.182;11.704;2024-02-26T04:02:27;93078.87;;;4.36;40.69
77366;BME280;66430;50.182;11.704;2024-02-26T04:04:52;93079.72;;;4.22;41.19
77366;BME280;66430;50.182;11.704;2024-02-26T04:07:18;93080.39;;;3.85;41.52
77366;BME280;66430;50.182;11.704;2024-02-26T04:09:45;93076.87;;;3.89;41.93
77366;BME280;66430;50.182;11.704;2024-02-26T04:12:09;93076.57;;;3.87;41.95
77366;BME280;66430;50.182;11.704;2024-02-26T04:14:35;93077.00;;;3.51;42.38
77366;BME280;66430;50.182;11.704;2024-02-26T04:17:00;93080.95;;;3.70;42.56
77366;BME280;66430;50.182;11.704;2024-02-26T04:19:25;93083.24;;;3.50;42.54
77366;BME280;66430;50.182;11.704;2024-02-26T04:21:50;93088.89;;;3.81;42.59
77366;BME280;66430;50.182;11.704;2024-02-26T04:24:16;93086.06;;;3.96;42.68
77366;BME280;66430;50.182;11.704;2024-02-26T04:26:41;93084.61;;;3.37;43.38
77366;BME280;66430;50.182;11.704;2024-02-26T04:29:06;93082.31;;;3.35;43.56
77366;BME280;66430;50.182;11.704;2024-02-26T04:31:32;93083.86;;;3.82;43.63
77366;BME280;66430;50.182;11.704;2024-02-26T04:33:57;93083.04;;;4.16;43.19
77366;BME280;66430;50.182;11.704;2024-02-26T04:36:23;93080.21;;;3.50;43.22
77366;BME280;66430;50.182;11.704;2024-02-26T04:38:48;93078.74;;;3.64;43.71
77366;BME280;66430;50.182;11.704;2024-02-26T04:41:13;93078.44;;;3.83;43.98
77366;BME280;66430;50.182;11.704;2024-02-26T04:43:39;93083.82;;;3.27;44.32
77366;BME280;66430;50.182;11.704;2024-02-26T04:46:06;93085.94;;;3.47;44.41
77366;BME280;66430;50.182;11.704;2024-02-26T04:48:29;93087.18;;;3.40;44.23
77366;BME280;66430;50.182;11.704;2024-02-26T04:50:55;93085.33;;;3.71;43.66
77366;BME280;66430;50.182;11.704;2024-02-26T04:53:20;93086.36;;;3.81;44.51
77366;BME280;66430;50.182;11.704;2024-02-26T04:55:46;93082.93;;;3.72;44.22
77366;BME280;66430;50.182;11.704;2024-02-26T04:58:11;93084.22;;;3.95;43.94
77366;BME280;66430;50.182;11.704;2024-02-26T05:00:37;93087.47;;;3.54;44.11
77366;BME280;66430;50.182;11.704;2024-02-26T05:03:02;93086.95;;;3.93;43.47
77366;BME280;66430;50.182;11.704;2024-02-26T05:05:30;93081.07;;;3.89;43.26
77366;BME280;66430;50.182;11.704;2024-02-26T05:07:53;93082.63;;;4.02;43.27
77366;BME280;66430;50.182;11.704;2024-02-26T05:10:18;93082.89;;;3.95;43.48
77366;BME280;66430;50.182;11.704;2024-02-26T05:12:44;93084.40;;;4.04;43.88
77366;BME280;66430;50.182;11.704;2024-02-26T05:15:11;93084.73;;;3.79;43.84
77366;BME280;66430;50.182;11.704;2024-02-26T05:17:35;93086.15;;;4.00;43.60
77366;BME280;66430;50.182;11.704;2024-02-26T05:20:00;93081.57;;;3.87;44.11
77366;BME280;66430;50.182;11.704;2024-02-26T05:22:26;93083.10;;;3.93;43.76
77366;BME280;66430;50.182;11.704;2024-02-26T05:24:51;93085.88;;;3.77;43.99
77366;BME280;66430;50.182;11.704;2024-02-26T05:27:16;93083.73;;;3.77;44.01
77366;BME280;66430;50.182;11.704;2024-02-26T05:29:41;93082.70;;;3.64;44.29
77366;BME280;66430;50.182;11.704;2024-02-26T05:32:08;93085.44;;;3.50;44.57
77366;BME280;66430;50.182;11.704;2024-02-26T05:34:33;93084.28;;;3.35;44.87
77366;BME280;66430;50.182;11.704;2024-02-26T05:36:58;93084.59;;;3.24;45.18
77366;BME280;66430;50.182;11.704;2024-02-26T05:39:24;93085.23;;;4.09;44.60
77366;BME280;66430;50.182;11.704;2024-02-26T05:41:49;93091.84;;;3.82;44.24
77366;BME280;66430;50.182;11.704;2024-02-26T05:44:14;93095.59;;;4.35;43.68
77366;BME280;66430;50.182;11.704;2024-02-26T05:46:40;93097.53;;;4.63;43.04
77366;BME280;66430;50.182;11.704;2024-02-26T05:49:05;93098.67;;;4.81;42.61
77366;BME280;66430;50.182;11.704;2024-02-26T05:51:31;93101.22;;;4.87;42.26
77366;BME280;66430;50.182;11.704;2024-02-26T05:53:56;93106.52;;;4.79;41.91
77366;BME280;66430;50.182;11.704;2024-02-26T05:56:26;93108.18;;;4.66;41.95
77366;BME280;66430;50.182;11.704;2024-02-26T05:58:49;93109.08;;;4.68;42.05
77366;BME280;66430;50.182;11.704;2024-02-26T06:01:15;93109.56;;;4.76;42.13
77366;BME280;66430;50.182;11.704;2024-02-26T06:03:39;93109.44;;;4.25;42.55
77366;BME280;66430;50.182;11.704;2024-02-26T06:06:05;93108.08;;;4.59;42.05
77366;BME280;66430;50.182;11.704;2024-02-26T06:08:30;93110.13;;;4.85;41.67
77366;BME280;66430;50.182;11.704;2024-02-26T06:10:55;93113.43;;;5.10;41.45
77366;BME280;66430;50.182;11.704;2024-02-26T06:13:22;93116.90;;;5.27;41.06
77366;BME280;66430;50.182;11.704;2024-02-26T06:15:46;93116.42;;;4.94;41.04
77366;BME280;66430;50.182;11.704;2024-02-26T06:18:12;93115.02;;;4.76;41.40
77366;BME280;66430;50.182;11.704;2024-02-26T06:20:37;93120.00;;;4.77;41.52
77366;BME280;66430;50.182;11.704;2024-02-26T06:23:03;93122.94;;;4.93;41.43
77366;BME280;66430;50.182;11.704;2024-02-26T06:25:29;93122.32;;;4.95;41.17
77366;BME280;66430;50.182;11.704;2024-02-26T06:27:54;93119.77;;;4.90;41.30
77366;BME280;66430;50.182;11.704;2024-02-26T06:30:19;93117.77;;;5.18;41.08
77366;BME280;66430;50.182;11.704;2024-02-26T06:32:49;93116.87;;;5.05;41.11
77366;BME280;66430;50.182;11.704;2024-02-26T06:35:10;93117.57;;;4.77;41.23
77366;BME280;66430;50.182;11.704;2024-02-26T06:37:41;93117.82;;;4.93;41.63
77366;BME280;66430;50.182;11.704;2024-02-26T06:40:02;93117.52;;;4.98;41.65
77366;BME280;66430;50.182;11.704;2024-02-26T06:42:26;93115.54;;;4.78;42.02
77366;BME280;66430;50.182;11.704;2024-02-26T06:44:51;93119.18;;;4.80;42.17
77366;BME280;66430;50.182;11.704;2024-02-26T06:47:18;93125.73;;;5.34;41.75
77366;BME280;66430;50.182;11.704;2024-02-26T06:49:44;93128.55;;;5.53;41.32
77366;BME280;66430;50.182;11.704;2024-02-26T06:52:08;93129.22;;;5.47;41.20
77366;BME280;66430;50.182;11.704;2024-02-26T06:54:34;93135.75;;;5.37;41.02
77366;BME280;66430;50.182;11.704;2024-02-26T06:56:59;93137.18;;;5.26;41.66
77366;BME280;66430;50.182;11.704;2024-02-26T06:59:24;93137.34;;;4.92;41.90
77366;BME280;66430;50.182;11.704;2024-02-26T07:01:49;93133.26;;;4.72;42.29
77366;BME280;66430;50.182;11.704;2024-02-26T07:04:15;93133.21;;;4.44;42.80
77366;BME280;66430;50.182;11.704;2024-02-26T07:06:41;93135.21;;;4.41;42.92
77366;BME280;66430;50.182;11.704;2024-02-26T07:09:06;93137.27;;;5.02;42.50
77366;BME280;66430;50.182;11.704;2024-02-26T07:11:32;93143.44;;;4.71;42.92
77366;BME280;66430;50.182;11.704;2024-02-26T07:13:57;93143.61;;;4.63;42.80
77366;BME280;66430;50.182;11.704;2024-02-26T07:16:23;93141.14;;;4.45;43.00
77366;BME280;66430;50.182;11.704;2024-02-26T07:18:47;93137.90;;;5.16;42.38
77366;BME280;66430;50.182;11.704;2024-02-26T07:21:13;93138.69;;;4.71;42.79
77366;BME280;66430;50.182;11.704;2024-02-26T07:23:38;93143.81;;;4.48;43.10
77366;BME280;66430;50.182;11.704;2024-02-26T07:26:03;93149.26;;;4.71;43.27
77366;BME280;66430;50.182;11.704;2024-02-26T07:28:31;93151.21;;;4.94;42.76
77366;BME280;66430;50.182;11.704;2024-02-26T07:30:55;93157.27;;;5.14;42.36
77366;BME280;66430;50.182;11.704;2024-02-26T07:33:20;93165.73;;;5.36;42.09
77366;BME280;66430;50.182;11.704;2024-02-26T07:35:55;93170.81;;;5.39;41.87
77366;BME280;66430;50.182;11.704;2024-02-26T07:38:11;93176.23;;;5.45;41.80
77366;BME280;66430;50.182;11.704;2024-02-26T07:40:37;93176.59;;;5.66;41.83
77366;BME280;66430;50.182;11.704;2024-02-26T07:43:02;93177.19;;;5.56;42.04
77366;BME280;66430;50.182;11.704;2024-02-26T07:45:28;93177.68;;;5.08;42.37
77366;BME280;66430;50.182;11.704;2024-02-26T07:47:53;93181.27;;;4.93;42.70
77366;BME280;66430;50.182;11.704;2024-02-26T07:50:19;93183.20;;;5.09;42.61
77366;BME280;66430;50.182;11.704;2024-02-26T07:52:45;93183.68;;;5.54;42.02
77366;BME280;66430;50.182;11.704;2024-02-26T07:55:10;93184.54;;;5.43;42.50
77366;BME280;66430;50.182;11.704;2024-02-26T07:57:35;93184.58;;;5.44;42.22
77366;BME280;66430;50.182;11.704;2024-02-26T08:00:00;93181.27;;;5.35;42.66
77366;BME280;66430;50.182;11.704;2024-02-26T08:02:28;93180.91;;;4.93;43.05
77366;BME280;66430;50.182;11.704;2024-02-26T08:04:51;93180.84;;;4.77;43.35
77366;BME280;66430;50.182;11.704;2024-02-26T08:07:17;93182.57;;;4.64;44.12
77366;BME280;66430;50.182;11.704;2024-02-26T08:09:42;93180.57;;;4.48;44.12
77366;BME280;66430;50.182;11.704;2024-02-26T08:12:08;93180.40;;;4.90;44.01
77366;BME280;66430;50.182;11.704;2024-02-26T08:14:33;93182.00;;;4.77;44.25
77366;BME280;66430;50.182;11.704;2024-02-26T08:16:59;93182.95;;;4.78;44.80
77366;BME280;66430;50.182;11.704;2024-02-26T08:19:24;93184.81;;;4.24;44.82
77366;BME280;66430;50.182;11.704;2024-02-26T08:21:50;93188.54;;;4.73;45.00
77366;BME280;66430;50.182;11.704;2024-02-26T08:24:15;93189.36;;;4.72;45.10
77366;BME280;66430;50.182;11.704;2024-02-26T08:26:41;93192.10;;;4.53;44.77
77366;BME280;66430;50.182;11.704;2024-02-26T08:29:06;93192.94;;;4.89;44.63
77366;BME280;66430;50.182;11.704;2024-02-26T08:31:31;93190.21;;;5.06;44.43
77366;BME280;66430;50.182;11.704;2024-02-26T08:33:57;93192.02;;;5.16;43.87
77366;BME280;66430;50.182;11.704;2024-02-26T08:36:23;93192.60;;;4.95;44.18
77366;BME280;66430;50.182;11.704;2024-02-26T08:38:48;93193.51;;;5.33;44.24
77366;BME280;66430;50.182;11.704;2024-02-26T08:41:14;93191.54;;;5.27;44.11
77366;BME280;66430;50.182;11.704;2024-02-26T08:43:45;93190.37;;;5.66;43.72
77366;BME280;66430;50.182;11.704;2024-02-26T08:46:08;93187.46;;;5.76;43.52
77366;BME280;66430;50.182;11.704;2024-02-26T08:48:36;93189.27;;;5.63;43.94
77366;BME280;66430;50.182;11.704;2024-02-26T08:50:56;93185.66;;;5.48;44.65
77366;BME280;66430;50.182;11.704;2024-02-26T08:53:22;93189.89;;;5.57;44.24
77366;BME280;66430;50.182;11.704;2024-02-26T08:55:47;93190.76;;;6.13;43.58
77366;BME280;66430;50.182;11.704;2024-02-26T08:58:12;93189.54;;;5.76;43.97
77366;BME280;66430;50.182;11.704;2024-02-26T09:00:37;93196.75;;;5.81;43.30
77366;BME280;66430;50.182;11.704;2024-02-26T09:03:05;93198.66;;;6.52;43.19
77366;BME280;66430;50.182;11.704;2024-02-26T09:05:29;93198.00;;;6.26;43.57
77366;BME280;66430;50.182;11.704;2024-02-26T09:07:55;93197.06;;;6.55;43.24
77366;BME280;66430;50.182;11.704;2024-02-26T09:10:20;93199.41;;;6.78;42.77
77366;BME280;66430;50.182;11.704;2024-02-26T09:12:46;93200.82;;;6.10;43.95
77366;BME280;66430;50.182;11.704;2024-02-26T09:15:11;93201.72;;;5.76;45.10
77366;BME280;66430;50.182;11.704;2024-02-26T09:17:37;93202.28;;;5.55;45.61
77366;BME280;66430;50.182;11.704;2024-02-26T09:20:04;93205.87;;;6.27;44.77
77366;BME280;66430;50.182;11.704;2024-02-26T09:22:29;93202.62;;;5.91;45.29
77366;BME280;66430;50.182;11.704;2024-02-26T09:24:57;93206.41;;;5.90;45.77
77366;BME280;66430;50.182;11.704;2024-02-26T09:27:20;93215.01;;;6.21;45.29
77366;BME280;66430;50.182;11.704;2024-02-26T09:29:45;93216.33;;;5.89;45.18
77366;BME280;66430;50.182;11.704;2024-02-26T09:32:16;93216.78;;;6.82;44.21
77366;BME280;66430;50.182;11.704;2024-02-26T09:34:36;93216.01;;;6.81;43.78
77366;BME280;66430;50.182;11.704;2024-02-26T09:37:01;93215.77;;;7.17;42.81
77366;BME280;66430;50.182;11.704;2024-02-26T09:39:28;93213.70;;;7.51;42.26
77366;BME280;66430;50.182;11.704;2024-02-26T09:41:52;93216.12;;;7.93;41.62
77366;BME280;66430;50.182;11.704;2024-02-26T09:44:19;93216.72;;;8.23;41.28
77366;BME280;66430;50.182;11.704;2024-02-26T09:46:44;93219.20;;;7.82;40.85
77366;BME280;66430;50.182;11.704;2024-02-26T09:49:10;93213.58;;;8.07;41.11
77366;BME280;66430;50.182;11.704;2024-02-26T09:51:40;93208.98;;;8.06;40.91
77366;BME280;66430;50.182;11.704;2024-02-26T09:54:00;93202.77;;;7.71;41.77
77366;BME280;66430;50.182;11.704;2024-02-26T09:56:27;93204.54;;;7.70;41.78
77366;BME280;66430;50.182;11.704;2024-02-26T09:58:54;93199.23;;;7.70;41.77
77366;BME280;66430;50.182;11.704;2024-02-26T10:01:18;93200.38;;;8.05;41.37
77366;BME280;66430;50.182;11.704;2024-02-26T10:03:43;93199.85;;;7.51;42.10
77366;BME280;66430;50.182;11.704;2024-02-26T10:06:14;93204.21;;;7.76;42.26
77366;BME280;66430;50.182;11.704;2024-02-26T10:08:35;93214.08;;;7.24;43.12
77366;BME280;66430;50.182;11.704;2024-02-26T10:11:00;93209.35;;;6.90;43.15
77366;BME280;66430;50.182;11.704;2024-02-26T10:13:25;93208.88;;;7.44;43.48
77366;BME280;66430;50.182;11.704;2024-02-26T10:15:51;93216.76;;;7.13;43.53
77366;BME280;66430;50.182;11.704;2024-02-26T10:18:16;93218.50;;;7.59;43.51
77366;BME280;66430;50.182;11.704;2024-02-26T10:20:41;93218.36;;;7.64;43.77
77366;BME280;66430;50.182;11.704;2024-02-26T10:23:07;93217.22;;;7.35;43.92
77366;BME280;66430;50.182;11.704;2024-02-26T10:25:32;93216.99;;;7.06;44.57
77366;BME280;66430;50.182;11.704;2024-02-26T10:28:00;93217.93;;;7.19;44.08
77366;BME280;66430;50.182;11.704;2024-02-26T10:30:25;93220.72;;;7.99;43.11
77366;BME280;66430;50.182;11.704;2024-02-26T10:32:49;93222.50;;;7.69;42.69
77366;BME280;66430;50.182;11.704;2024-02-26T10:35:15;93223.40;;;7.69;42.33
77366;BME280;66430;50.182;11.704;2024-02-26T10:37:40;93226.04;;;8.86;41.60
77366;BME280;66430;50.182;11.704;2024-02-26T10:40:08;93227.84;;;8.65;40.95
77366;BME280;66430;50.182;11.704;2024-02-26T10:42:31;93229.81;;;9.24;40.41
77366;BME280;66430;50.182;11.704;2024-02-26T10:44:58;93236.41;;;8.70;40.89
77366;BME280;66430;50.182;11.704;2024-02-26T10:47:25;93238.69;;;8.63;40.49
77366;BME280;66430;50.182;11.704;2024-02-26T10:49:51;93244.67;;;8.81;39.93
77366;BME280;66430;50.182;11.704;2024-02-26T10:52:15;93246.92;;;10.23;38.43
77366;BME280;66430;50.182;11.704;2024-02-26T10:54:41;93248.82;;;10.15;38.37
77366;BME280;66430;50.182;11.704;2024-02-26T10:57:05;93247.31;;;10.22;38.47
77366;BME280;66430;50.182;11.704;2024-02-26T10:59:33;93244.76;;;10.71;38.03
77366;BME280;66430;50.182;11.704;2024-02-26T11:01:56;93243.32;;;10.34;38.13
77366;BME280;66430;50.182;11.704;2024-02-26T11:04:22;93242.76;;;9.67;39.24
77366;BME280;66430;50.182;11.704;2024-02-26T11:06:47;93242.22;;;9.31;39.82
77366;BME280;66430;50.182;11.704;2024-02-26T11:09:14;93243.20;;;9.88;39.64
77366;BME280;66430;50.182;11.704;2024-02-26T11:11:37;93239.50;;;9.70;39.53
77366;BME280;66430;50.182;11.704;2024-02-26T11:14:04;93246.54;;;9.16;39.32
77366;BME280;66430;50.182;11.704;2024-02-26T11:16:29;93244.35;;;8.80;39.97
77366;BME280;66430;50.182;11.704;2024-02-26T11:18:53;93252.41;;;9.27;40.74
77366;BME280;66430;50.182;11.704;2024-02-26T11:21:20;93246.75;;;9.85;40.18
77366;BME280;66430;50.182;11.704;2024-02-26T11:23:48;93248.14;;;9.99;39.17
77366;BME280;66430;50.182;11.704;2024-02-26T11:26:11;93249.22;;;10.16;38.77
77366;BME280;66430;50.182;11.704;2024-02-26T11:28:36;93249.98;;;10.20;37.81
77366;BME280;66430;50.182;11.704;2024-02-26T11:31:01;93245.74;;;10.47;37.46
77366;BME280;66430;50.182;11.704;2024-02-26T11:33:26;93248.47;;;10.11;37.30
77366;BME280;66430;50.182;11.704;2024-02-26T11:35:52;93250.33;;;10.85;37.51
77366;BME280;66430;50.182;11.704;2024-02-26T11:38:20;93253.82;;;10.90;37.12
77366;BME280;66430;50.182;11.704;2024-02-26T11:40:44;93252.46;;;11.13;36.85
77366;BME280;66430;50.182;11.704;2024-02-26T11:43:08;93249.19;;;11.36;36.58
77366;BME280;66430;50.182;11.704;2024-02-26T11:45:49;93248.46;;;10.95;36.40
77366;BME280;66430;50.182;11.704;2024-02-26T11:48:02;93251.16;;;10.72;37.01
77366;BME280;66430;50.182;11.704;2024-02-26T11:50:34;93251.65;;;10.86;36.92
77366;BME280;66430;50.182;11.704;2024-02-26T11:57:41;93244.98;;;11.08;36.66
77366;BME280;66430;50.182;11.704;2024-02-26T12:00:13;93241.21;;;10.54;36.26
77366;BME280;66430;50.182;11.704;2024-02-26T12:02:43;93245.43;;;10.70;37.14
77366;BME280;66430;50.182;11.704;2024-02-26T12:04:58;93247.10;;;10.40;37.06
77366;BME280;66430;50.182;11.704;2024-02-26T12:07:23;93251.66;;;10.71;36.66
77366;BME280;66430;50.182;11.704;2024-02-26T12:09:48;93250.76;;;11.05;36.40
77366;BME280;66430;50.182;11.704;2024-02-26T12:12:18;93248.30;;;10.76;35.81
77366;BME280;66430;50.182;11.704;2024-02-26T12:14:50;93250.22;;;11.51;36.03
77366;BME280;66430;50.182;11.704;2024-02-26T12:17:05;93255.93;;;11.35;36.20
77366;BME280;66430;50.182;11.704;2024-02-26T12:19:31;93256.58;;;11.67;35.90
77366;BME280;66430;50.182;11.704;2024-02-26T12:21:56;93256.07;;;11.76;35.29
77366;BME280;66430;50.182;11.704;2024-02-26T12:24:21;93259.03;;;11.29;34.71
77366;BME280;66430;50.182;11.704;2024-02-26T12:26:47;93258.00;;;11.18;35.30
77366;BME280;66430;50.182;11.704;2024-02-26T12:29:13;93261.01;;;11.55;34.97
77366;BME280;66430;50.182;11.704;2024-02-26T12:31:38;93262.71;;;11.18;34.91
77366;BME280;66430;50.182;11.704;2024-02-26T12:34:03;93266.36;;;12.00;34.73
77366;BME280;66430;50.182;11.704;2024-02-26T12:36:28;93272.00;;;12.12;34.49
77366;BME280;66430;50.182;11.704;2024-02-26T12:38:53;93277.59;;;12.32;34.09
77366;BME280;66430;50.182;11.704;2024-02-26T12:41:19;93283.09;;;12.17;34.16
77366;BME280;66430;50.182;11.704;2024-02-26T12:43:46;93286.07;;;12.21;34.03
77366;BME280;66430;50.182;11.704;2024-02-26T12:46:11;93286.75;;;12.64;34.32
77366;BME280;66430;50.182;11.704;2024-02-26T12:48:35;93287.44;;;12.69;33.98
77366;BME280;66430;50.182;11.704;2024-02-26T12:51:01;93294.66;;;12.59;34.20
77366;BME280;66430;50.182;11.704;2024-02-26T12:53:26;93299.44;;;11.88;34.55